createdAt,value
2019-04-16T00:01:24.878Z,96.70
2019-04-16T00:04:01.683Z,98.30
2019-04-16T00:06:35.586Z,98.20
2019-04-16T00:09:10.334Z,96.90
2019-04-16T00:11:47.309Z,96.40
2019-04-16T00:14:21.394Z,97.10
2019-04-16T00:16:50.758Z,97.00
2019-04-16T00:19:20.222Z,97.30
2019-04-16T00:21:54.362Z,97.60
2019-04-16T00:24:34.314Z,98.00
2019-04-16T00:27:03.810Z,99.20
2019-04-16T00:29:33.808Z,99.90
2019-04-16T00:32:07.887Z,99.90
2019-04-16T00:34:35.999Z,99.90
2019-04-16T00:37:05.616Z,99.90
2019-04-16T00:39:35.075Z,99.90
2019-04-16T00:42:04.675Z,99.90
2019-04-16T00:44:34.147Z,99.90
2019-04-16T00:47:03.683Z,99.90
2019-04-16T00:49:33.143Z,99.90
2019-04-16T00:52:05.916Z,99.90
2019-04-16T00:54:33.867Z,99.90
2019-04-16T00:57:03.227Z,99.90
2019-04-16T00:59:32.987Z,99.90
2019-04-16T01:02:02.748Z,99.90
2019-04-16T01:04:32.136Z,99.90
2019-04-16T01:07:01.765Z,99.90
2019-04-16T01:09:31.127Z,99.90
2019-04-16T01:12:00.836Z,99.90
2019-04-16T01:14:30.207Z,99.90
2019-04-16T01:17:03.846Z,99.90
2019-04-16T01:19:30.972Z,99.90
2019-04-16T01:22:00.759Z,99.90
2019-04-16T01:24:30.170Z,99.90
2019-04-16T01:26:59.972Z,99.90
2019-04-16T01:29:33.569Z,99.90
2019-04-16T01:32:09.842Z,99.90
2019-04-16T01:34:38.570Z,99.90
2019-04-16T01:37:09.736Z,99.90
2019-04-16T01:39:40.735Z,99.90
2019-04-16T01:42:10.246Z,99.90
2019-04-16T01:44:39.958Z,99.90
2019-04-16T01:47:09.421Z,99.90
2019-04-16T01:49:39.345Z,99.90
2019-04-16T01:52:10.068Z,99.90
2019-04-16T01:54:39.851Z,99.90
2019-04-16T01:57:09.265Z,99.90
2019-04-16T01:59:38.961Z,99.90
2019-04-16T02:02:08.353Z,99.90
2019-04-16T02:04:37.971Z,99.90
2019-04-16T02:07:07.491Z,99.90
2019-04-16T02:09:36.991Z,99.90
2019-04-16T02:12:06.521Z,99.90
2019-04-16T02:14:35.995Z,99.90
2019-04-16T02:17:05.374Z,99.90
2019-04-16T02:19:35.006Z,99.90
2019-04-16T02:22:04.385Z,99.90
2019-04-16T02:24:34.019Z,99.90
2019-04-16T02:27:03.406Z,99.90
2019-04-16T02:29:33.065Z,99.90
2019-04-16T02:32:02.533Z,99.90
2019-04-16T02:34:32.083Z,99.90
2019-04-16T02:37:03.190Z,99.90
2019-04-16T02:39:47.850Z,99.90
2019-04-16T02:42:04.243Z,99.90
2019-04-16T02:44:34.006Z,99.90
2019-04-16T02:47:06.512Z,99.90
2019-04-16T02:49:34.539Z,99.90
2019-04-16T02:52:05.640Z,99.90
2019-04-16T02:54:39.441Z,99.90
2019-04-16T02:57:26.555Z,99.90
2019-04-16T02:59:54.689Z,99.90
2019-04-16T03:02:41.698Z,99.90
2019-04-16T03:05:26.476Z,99.90
2019-04-16T03:07:55.965Z,99.90
2019-04-16T03:10:25.403Z,99.90
2019-04-16T03:12:54.966Z,99.90
2019-04-16T03:15:42.203Z,99.90
2019-04-16T03:18:15.014Z,99.90
2019-04-16T03:20:45.007Z,99.90
2019-04-16T03:23:14.394Z,99.90
2019-04-16T03:25:44.986Z,99.90
2019-04-16T03:28:14.503Z,99.90
2019-04-16T03:30:44.161Z,99.90
2019-04-16T03:33:15.160Z,99.90
2019-04-16T03:35:45.162Z,99.90
2019-04-16T03:38:14.621Z,99.90
2019-04-16T03:40:44.172Z,99.90
2019-04-16T03:43:13.558Z,99.90
2019-04-16T03:45:43.199Z,99.90
2019-04-16T03:48:12.660Z,99.90
2019-04-16T03:50:42.207Z,99.90
2019-04-16T03:53:16.379Z,99.90
2019-04-16T03:55:43.077Z,99.90
2019-04-16T03:58:12.598Z,99.90
2019-04-16T04:00:44.146Z,99.90
2019-04-16T04:03:13.454Z,99.90
2019-04-16T04:05:44.792Z,99.90
2019-04-16T04:08:17.593Z,99.90
2019-04-16T04:10:45.391Z,99.90
2019-04-16T04:13:18.625Z,99.90
2019-04-16T04:15:46.290Z,99.90
2019-04-16T04:18:15.716Z,99.90
2019-04-16T04:20:49.568Z,99.90
2019-04-16T04:23:16.382Z,99.90
2019-04-16T04:25:46.187Z,99.90
2019-04-16T04:28:18.493Z,99.90
2019-04-16T04:30:48.760Z,99.90
2019-04-16T04:33:40.349Z,99.90
2019-04-16T04:36:10.335Z,99.90
2019-04-16T04:38:40.443Z,99.90
2019-04-16T04:41:10.070Z,99.90
2019-04-16T04:43:39.431Z,99.90
2019-04-16T04:46:12.876Z,99.90
2019-04-16T04:48:40.284Z,99.90
2019-04-16T04:51:09.666Z,99.90
2019-04-16T04:53:39.311Z,99.90
2019-04-16T04:56:08.766Z,99.90
2019-04-16T04:58:38.298Z,99.90
2019-04-16T05:01:09.537Z,99.90
2019-04-16T05:03:40.802Z,99.90
2019-04-16T05:06:11.963Z,99.90
2019-04-16T05:08:41.474Z,99.90
2019-04-16T05:11:12.559Z,99.90
2019-04-16T05:13:42.351Z,99.90
2019-04-16T05:16:12.177Z,99.90
2019-04-16T05:18:41.836Z,99.90
2019-04-16T05:21:12.231Z,99.90
2019-04-16T05:23:41.639Z,99.90
2019-04-16T05:26:11.260Z,99.90
2019-04-16T05:28:44.503Z,99.90
2019-04-16T05:31:11.919Z,99.90
2019-04-16T05:33:41.401Z,99.90
2019-04-16T05:36:13.993Z,99.90
2019-04-16T05:38:42.285Z,99.90
2019-04-16T05:41:13.717Z,99.90
2019-04-16T05:43:43.235Z,99.90
2019-04-16T05:46:12.792Z,99.90
2019-04-16T05:48:42.432Z,99.90
2019-04-16T05:51:11.832Z,99.90
2019-04-16T05:53:43.059Z,99.90
2019-04-16T05:56:17.215Z,99.90
2019-04-16T05:58:46.725Z,99.90
2019-04-16T06:01:17.955Z,99.90
2019-04-16T06:03:47.445Z,99.90
2019-04-16T06:06:16.862Z,99.90
2019-04-16T06:08:46.483Z,99.90
2019-04-16T06:11:27.578Z,99.90
2019-04-16T06:13:55.058Z,99.90
2019-04-16T06:16:31.014Z,99.90
2019-04-16T06:19:11.418Z,99.90
2019-04-16T06:21:43.297Z,99.90
2019-04-16T06:24:20.209Z,99.90
2019-04-16T06:27:09.449Z,99.90
2019-04-16T06:29:57.579Z,99.90
2019-04-16T06:32:44.601Z,99.90
2019-04-16T06:35:16.082Z,99.90
2019-04-16T06:37:47.256Z,99.90
2019-04-16T06:40:18.329Z,99.90
2019-04-16T06:42:51.445Z,99.90
2019-04-16T06:45:22.210Z,99.90
2019-04-16T06:47:53.382Z,99.90
2019-04-16T06:50:32.457Z,99.90
2019-04-16T06:53:06.831Z,99.90
2019-04-16T06:55:53.211Z,99.90
2019-04-16T06:58:27.236Z,99.90
2019-04-16T07:00:57.137Z,99.90
2019-04-16T07:03:34.175Z,99.90
2019-04-16T07:06:10.963Z,99.90
2019-04-16T07:08:57.031Z,99.90
2019-04-16T07:11:28.048Z,99.90
2019-04-16T07:13:57.501Z,99.90
2019-04-16T07:16:28.890Z,99.90
2019-04-16T07:18:58.408Z,99.90
2019-04-16T07:21:27.875Z,99.90
2019-04-16T07:23:58.623Z,99.90
2019-04-16T07:26:28.610Z,99.90
2019-04-16T07:29:16.431Z,99.90
2019-04-16T07:31:47.816Z,99.90
2019-04-16T07:34:32.274Z,99.90
2019-04-16T07:37:19.720Z,99.90
2019-04-16T07:39:56.546Z,99.90
2019-04-16T07:42:51.626Z,99.90
2019-04-16T07:45:19.763Z,99.90
2019-04-16T07:47:51.647Z,99.90
2019-04-16T07:50:39.858Z,99.90
2019-04-16T07:53:27.411Z,99.90
2019-04-16T07:56:01.283Z,99.90
2019-04-16T07:58:30.803Z,99.90
2019-04-16T08:01:00.453Z,99.90
2019-04-16T08:03:30.752Z,99.90
2019-04-16T08:06:00.495Z,99.90
2019-04-16T08:08:30.786Z,99.50
2019-04-16T08:11:00.568Z,98.60
2019-04-16T08:13:33.634Z,98.00
2019-04-16T08:16:04.325Z,98.20
2019-04-16T08:18:35.487Z,98.00
2019-04-16T08:21:10.546Z,97.00
2019-04-16T08:23:39.291Z,96.50
2019-04-16T08:26:12.955Z,97.50
2019-04-16T08:28:40.671Z,97.10
2019-04-16T08:31:12.891Z,97.20
2019-04-16T08:33:42.762Z,95.70
2019-04-16T08:36:12.515Z,94.80
2019-04-16T08:38:42.038Z,94.70
2019-04-16T08:41:13.092Z,94.30
2019-04-16T08:43:42.910Z,92.30
2019-04-16T08:46:12.581Z,91.00
2019-04-16T08:48:41.968Z,91.00
2019-04-16T08:51:11.662Z,91.00
2019-04-16T08:53:43.733Z,87.00
2019-04-16T08:56:12.543Z,86.00
2019-04-16T08:58:41.999Z,86.50
2019-04-16T09:01:15.444Z,84.20
2019-04-16T09:03:44.653Z,82.50
2019-04-16T09:06:14.284Z,83.20
2019-04-16T09:08:52.566Z,82.50
2019-04-16T09:11:23.585Z,80.50
2019-04-16T09:13:52.465Z,79.30
2019-04-16T09:16:22.207Z,78.20
2019-04-16T09:18:55.990Z,77.20
2019-04-16T09:21:27.936Z,74.70
2019-04-16T09:24:14.832Z,75.20
2019-04-16T09:27:02.460Z,74.50
2019-04-16T09:29:45.643Z,73.40
2019-04-16T09:32:19.709Z,76.30
2019-04-16T09:35:10.779Z,71.60
2019-04-16T09:37:56.524Z,70.90
2019-04-16T09:40:43.772Z,71.70
2019-04-16T09:43:17.610Z,67.90
2019-04-16T09:45:45.973Z,67.00
2019-04-16T09:48:15.656Z,65.40
2019-04-16T09:50:47.867Z,64.10
2019-04-16T09:53:16.256Z,64.30
2019-04-16T09:55:47.646Z,63.70
2019-04-16T09:58:24.586Z,63.50
2019-04-16T10:00:58.613Z,63.00
2019-04-16T10:03:35.472Z,66.60
2019-04-16T10:06:05.746Z,64.00
2019-04-16T10:08:35.727Z,62.90
2019-04-16T10:11:06.161Z,62.00
2019-04-16T10:13:36.480Z,60.00
2019-04-16T10:16:06.209Z,58.70
2019-04-16T10:18:36.052Z,57.80
2019-04-16T10:21:05.682Z,58.30
2019-04-16T10:23:52.720Z,58.40
2019-04-16T10:26:22.296Z,57.90
2019-04-16T10:28:51.869Z,58.60
2019-04-16T10:31:23.255Z,58.10
2019-04-16T10:33:52.807Z,57.60
2019-04-16T10:36:22.380Z,58.10
2019-04-16T10:38:56.506Z,57.70
2019-04-16T10:41:39.503Z,58.10
2019-04-16T10:44:28.535Z,58.10
2019-04-16T10:47:16.623Z,60.50
2019-04-16T10:49:51.203Z,56.60
2019-04-16T10:52:31.331Z,56.40
2019-04-16T10:55:05.150Z,54.30
2019-04-16T10:57:38.393Z,55.00
2019-04-16T11:00:18.698Z,54.70
2019-04-16T11:02:49.972Z,55.50
2019-04-16T11:05:27.319Z,54.00
2019-04-16T11:07:58.482Z,52.50
2019-04-16T11:10:28.047Z,54.10
2019-04-16T11:12:57.811Z,52.30
2019-04-16T11:15:27.778Z,53.70
2019-04-16T11:17:57.336Z,53.80
2019-04-16T11:20:26.796Z,54.30
2019-04-16T11:22:56.294Z,52.60
2019-04-16T11:25:25.842Z,52.90
2019-04-16T11:27:55.205Z,56.30
2019-04-16T11:30:28.888Z,57.50
2019-04-16T11:32:59.374Z,57.60
2019-04-16T11:35:28.816Z,67.60
2019-04-16T11:37:58.252Z,61.90
2019-04-16T11:40:27.912Z,51.70
2019-04-16T11:42:57.394Z,51.10
2019-04-16T11:45:26.910Z,51.40
2019-04-16T11:47:56.446Z,48.80
2019-04-16T11:50:26.065Z,48.80
2019-04-16T11:52:58.177Z,50.20
2019-04-16T11:55:26.955Z,53.00
2019-04-16T11:57:56.366Z,50.30
2019-04-16T12:00:33.634Z,52.50
2019-04-16T12:03:08.062Z,51.10
2019-04-16T12:05:39.732Z,47.30
2019-04-16T12:08:16.454Z,45.30
2019-04-16T12:11:03.704Z,44.20
2019-04-16T12:13:50.870Z,42.30
2019-04-16T12:16:25.464Z,42.50
2019-04-16T12:18:59.505Z,41.30
2019-04-16T12:21:36.733Z,42.00
2019-04-16T12:24:23.807Z,41.90
2019-04-16T12:27:00.625Z,41.30
2019-04-16T12:29:48.818Z,41.40
2019-04-16T12:32:19.985Z,39.70
2019-04-16T12:35:07.509Z,39.40
2019-04-16T12:37:55.033Z,38.90
2019-04-16T12:40:42.499Z,38.40
2019-04-16T12:43:16.720Z,38.10
2019-04-16T12:45:53.434Z,37.50
2019-04-16T12:48:23.541Z,37.50
2019-04-16T12:51:06.716Z,37.60
2019-04-16T12:53:37.863Z,37.70
2019-04-16T12:56:25.290Z,38.20
2019-04-16T12:59:02.243Z,38.40
2019-04-16T13:01:37.215Z,39.00
2019-04-16T13:04:08.536Z,39.90
2019-04-16T13:06:55.813Z,40.50
2019-04-16T13:09:32.926Z,40.00
2019-04-16T13:12:10.525Z,40.50
2019-04-16T13:15:00.997Z,38.80
2019-04-16T13:17:30.711Z,38.90
2019-04-16T13:20:10.409Z,39.20
2019-04-16T13:22:44.527Z,37.70
2019-04-16T13:25:18.587Z,37.10
2019-04-16T13:27:50.880Z,37.00
2019-04-16T13:30:20.143Z,37.40
2019-04-16T13:32:49.973Z,34.90
2019-04-16T13:35:20.080Z,34.40
2019-04-16T13:37:49.611Z,33.90
2019-04-16T13:40:20.739Z,34.00
2019-04-16T13:42:50.401Z,34.20
2019-04-16T13:45:31.174Z,35.20
2019-04-16T13:48:14.751Z,35.20
2019-04-16T13:50:38.239Z,35.40
2019-04-16T13:53:10.437Z,36.10
2019-04-16T13:55:57.721Z,35.10
2019-04-16T13:58:45.131Z,33.90
2019-04-16T14:01:22.326Z,33.80
2019-04-16T14:03:56.085Z,33.20
2019-04-16T14:06:23.146Z,32.80
2019-04-16T14:08:52.669Z,32.50
2019-04-16T14:11:22.330Z,31.70
2019-04-16T14:13:52.400Z,31.20
2019-04-16T14:16:22.430Z,31.90
2019-04-16T14:18:52.336Z,32.10
2019-04-16T14:21:22.418Z,32.60
2019-04-16T14:23:52.413Z,32.20
2019-04-16T14:26:22.350Z,33.00
2019-04-16T14:28:52.698Z,31.30
2019-04-16T14:31:23.987Z,31.30
2019-04-16T14:34:03.866Z,30.00
2019-04-16T14:36:33.357Z,30.20
2019-04-16T14:39:16.914Z,31.20
2019-04-16T14:41:50.179Z,30.50
2019-04-16T14:44:19.203Z,30.30
2019-04-16T14:46:49.337Z,30.30
2019-04-16T14:49:19.291Z,31.00
2019-04-16T14:51:49.234Z,29.90
2019-04-16T14:54:20.843Z,29.30
2019-04-16T14:56:52.201Z,28.30
2019-04-16T14:59:36.005Z,26.60
2019-04-16T15:02:16.885Z,25.20
2019-04-16T15:04:58.289Z,24.40
2019-04-16T15:07:29.755Z,24.20
2019-04-16T15:10:04.113Z,23.10
2019-04-16T15:12:35.741Z,22.20
2019-04-16T15:15:23.582Z,22.00
2019-04-16T15:17:57.850Z,22.10
2019-04-16T15:20:41.471Z,23.40
2019-04-16T15:23:18.563Z,25.00
2019-04-16T15:25:58.930Z,26.70
2019-04-16T15:28:42.083Z,27.70
2019-04-16T15:31:32.685Z,27.60
2019-04-16T15:34:11.126Z,27.70
2019-04-16T15:36:41.139Z,28.70
2019-04-16T15:39:12.501Z,29.80
2019-04-16T15:42:00.236Z,31.70
2019-04-16T15:44:32.462Z,32.60
2019-04-16T15:47:06.833Z,34.10
2019-04-16T15:49:38.027Z,35.60
2019-04-16T15:52:10.332Z,36.50
2019-04-16T15:54:42.004Z,36.50
2019-04-16T15:57:29.402Z,36.30
2019-04-16T16:00:00.855Z,37.30
2019-04-16T16:02:33.075Z,37.50
2019-04-16T16:05:04.104Z,38.40
2019-04-16T16:07:34.307Z,38.70
2019-04-16T16:10:12.383Z,38.90
2019-04-16T16:12:40.416Z,38.60
2019-04-16T16:15:10.611Z,38.70
2019-04-16T16:17:40.393Z,39.90
2019-04-16T16:20:11.270Z,39.60
2019-04-16T16:22:41.223Z,39.70
2019-04-16T16:25:10.673Z,40.20
2019-04-16T16:27:43.885Z,40.30
2019-04-16T16:30:14.410Z,40.60
2019-04-16T16:32:42.686Z,40.40
2019-04-16T16:35:16.969Z,39.90
2019-04-16T16:37:43.440Z,39.20
2019-04-16T16:40:15.300Z,39.30
2019-04-16T16:42:44.432Z,39.10
2019-04-16T16:45:13.962Z,40.00
2019-04-16T16:47:43.450Z,41.20
2019-04-16T16:50:14.428Z,42.00
2019-04-16T16:53:03.736Z,42.60
2019-04-16T16:55:38.116Z,43.20
2019-04-16T16:58:25.568Z,43.60
2019-04-16T17:01:00.353Z,43.10
2019-04-16T17:03:53.003Z,43.00
2019-04-16T17:06:24.651Z,43.80
2019-04-16T17:08:54.529Z,44.50
2019-04-16T17:11:24.095Z,44.70
2019-04-16T17:13:53.575Z,44.90
2019-04-16T17:16:23.355Z,45.10
2019-04-16T17:18:52.813Z,45.00
2019-04-16T17:21:22.706Z,45.50
2019-04-16T17:23:52.347Z,45.60
2019-04-16T17:26:21.747Z,46.20
2019-04-16T17:28:51.542Z,46.30
2019-04-16T17:31:21.026Z,46.50
2019-04-16T17:33:50.545Z,46.60
2019-04-16T17:36:20.103Z,46.80
2019-04-16T17:38:49.662Z,46.80
2019-04-16T17:41:20.697Z,47.20
2019-04-16T17:44:00.330Z,47.50
2019-04-16T17:46:39.757Z,47.50
2019-04-16T17:49:17.071Z,47.50
2019-04-16T17:51:48.276Z,47.80
2019-04-16T17:54:27.940Z,48.20
2019-04-16T17:57:15.573Z,48.10
2019-04-16T17:59:46.658Z,48.40
2019-04-16T18:02:34.351Z,48.50
2019-04-16T18:05:05.654Z,48.40
2019-04-16T18:07:40.112Z,49.40
2019-04-16T18:10:22.453Z,48.80
2019-04-16T18:12:56.797Z,48.70
2019-04-16T18:15:31.208Z,49.20
2019-04-16T18:18:08.440Z,49.50
2019-04-16T18:20:56.841Z,49.90
2019-04-16T18:23:33.585Z,50.10
2019-04-16T18:26:07.231Z,51.20
2019-04-16T18:28:41.029Z,51.10
2019-04-16T18:31:15.088Z,50.60
2019-04-16T18:33:46.444Z,51.20
2019-04-16T18:36:17.783Z,51.20
2019-04-16T18:38:56.273Z,51.20
2019-04-16T18:41:34.243Z,51.20
2019-04-16T18:44:14.495Z,51.70
2019-04-16T18:46:54.691Z,51.40
2019-04-16T18:49:26.162Z,55.00
2019-04-16T18:51:58.764Z,52.30
2019-04-16T18:54:29.036Z,52.90
2019-04-16T18:56:58.733Z,52.80
2019-04-16T18:59:28.769Z,52.80
2019-04-16T19:02:03.089Z,53.10
2019-04-16T19:04:35.684Z,52.70
2019-04-16T19:07:05.155Z,53.10
2019-04-16T19:09:34.804Z,53.50
2019-04-16T19:12:04.702Z,53.60
2019-04-16T19:14:36.455Z,53.40
2019-04-16T19:17:09.119Z,53.90
2019-04-16T19:19:41.948Z,57.10
2019-04-16T19:22:10.241Z,54.80
2019-04-16T19:24:39.811Z,54.00
2019-04-16T19:27:09.655Z,54.50
2019-04-16T19:29:39.344Z,54.90
2019-04-16T19:32:09.278Z,54.90
2019-04-16T19:34:41.283Z,54.90
2019-04-16T19:37:10.636Z,54.80
2019-04-16T19:39:40.556Z,55.20
2019-04-16T19:42:11.439Z,54.90
2019-04-16T19:44:43.971Z,55.20
2019-04-16T19:47:13.750Z,55.30
2019-04-16T19:49:44.035Z,55.70
2019-04-16T19:52:14.296Z,55.70
2019-04-16T19:54:44.869Z,55.30
2019-04-16T19:57:14.669Z,55.20
2019-04-16T19:59:47.633Z,55.30
2019-04-16T20:02:17.953Z,55.80
2019-04-16T20:04:50.914Z,57.00
2019-04-16T20:07:20.752Z,57.10
2019-04-16T20:09:50.464Z,57.30
2019-04-16T20:12:20.052Z,56.10
2019-04-16T20:14:50.070Z,55.70
2019-04-16T20:17:19.808Z,56.40
2019-04-16T20:19:56.122Z,56.70
2019-04-16T20:22:27.038Z,56.40
2019-04-16T20:24:56.991Z,55.90
2019-04-16T20:27:26.954Z,55.90
2019-04-16T20:29:58.302Z,55.70
2019-04-16T20:32:31.017Z,55.90
2019-04-16T20:35:00.310Z,56.00
2019-04-16T20:37:29.825Z,56.80
2019-04-16T20:39:59.630Z,57.00
2019-04-16T20:42:29.202Z,57.20
2019-04-16T20:45:00.344Z,57.20
2019-04-16T20:47:29.994Z,57.60
2019-04-16T20:50:03.502Z,57.60
2019-04-16T20:52:33.954Z,57.80
2019-04-16T20:55:03.507Z,57.70
2019-04-16T20:57:33.017Z,58.20
2019-04-16T21:00:04.181Z,58.90
2019-04-16T21:02:34.108Z,58.70
2019-04-16T21:05:14.723Z,59.70
2019-04-16T21:07:36.228Z,58.50
2019-04-16T21:10:06.813Z,58.30
2019-04-16T21:12:36.430Z,58.30
2019-04-16T21:15:05.944Z,59.10
2019-04-16T21:17:38.168Z,59.70
2019-04-16T21:20:06.776Z,59.50
2019-04-16T21:22:36.250Z,60.30
2019-04-16T21:25:06.201Z,59.70
2019-04-16T21:27:37.585Z,59.80
2019-04-16T21:30:12.644Z,61.30
2019-04-16T21:32:58.323Z,60.90
2019-04-16T21:35:38.389Z,60.60
2019-04-16T21:38:12.443Z,61.80
2019-04-16T21:40:41.963Z,61.30
2019-04-16T21:43:11.792Z,62.00
2019-04-16T21:45:45.566Z,62.00
2019-04-16T21:48:15.453Z,62.40
2019-04-16T21:50:47.550Z,63.40
2019-04-16T21:53:16.324Z,63.80
2019-04-16T21:55:46.019Z,64.80
2019-04-16T21:58:18.519Z,65.20
2019-04-16T22:00:54.504Z,67.00
2019-04-16T22:03:25.490Z,67.30
2019-04-16T22:05:54.954Z,68.10
2019-04-16T22:08:29.635Z,69.30
2019-04-16T22:11:08.560Z,69.50
2019-04-16T22:13:39.094Z,69.60
2019-04-16T22:16:09.007Z,70.60
2019-04-16T22:18:41.527Z,72.00
2019-04-16T22:21:11.238Z,72.90
2019-04-16T22:23:41.290Z,72.60
2019-04-16T22:26:11.083Z,75.20
2019-04-16T22:28:44.194Z,76.70
2019-04-16T22:31:12.510Z,78.60
2019-04-16T22:33:42.099Z,79.00
2019-04-16T22:36:11.888Z,79.70
2019-04-16T22:38:43.015Z,80.60
2019-04-16T22:41:14.186Z,81.30
2019-04-16T22:44:01.642Z,84.90
2019-04-16T22:46:36.527Z,89.00
2019-04-16T22:49:06.082Z,92.50
2019-04-16T22:51:36.117Z,94.50
2019-04-16T22:54:05.874Z,95.90
2019-04-16T22:56:36.960Z,95.80
2019-04-16T22:59:07.745Z,98.10
2019-04-16T23:01:41.780Z,98.80
2019-04-16T23:04:11.307Z,99.30
2019-04-16T23:06:41.103Z,98.80
2019-04-16T23:09:16.704Z,99.20
2019-04-16T23:11:41.908Z,99.30
2019-04-16T23:14:11.439Z,99.90
2019-04-16T23:16:42.763Z,99.90
2019-04-16T23:19:12.249Z,99.90
2019-04-16T23:21:42.565Z,99.90
2019-04-16T23:24:12.986Z,99.90
2019-04-16T23:26:42.547Z,99.90
2019-04-16T23:29:15.424Z,99.90
2019-04-16T23:31:43.188Z,99.90
2019-04-16T23:34:12.600Z,99.90
2019-04-16T23:36:44.632Z,99.90
2019-04-16T23:39:13.276Z,99.90
2019-04-16T23:41:47.887Z,99.90
2019-04-16T23:44:27.889Z,99.90
2019-04-16T23:47:13.560Z,99.90
2019-04-16T23:49:56.916Z,99.90
2019-04-16T23:52:35.313Z,99.90
2019-04-16T23:55:09.687Z,99.90
2019-04-16T23:57:43.526Z,99.90
